Latest Weather Observations for Parafield

IDS60901

Issued at 1:21 am CST Sunday 26 June 2016 (issued every 10 minutes, with the page automatically refreshed every 10 minutes)

About weather observations | Map of Adelaide area stations | Latest observations for Adelaide area | Other Formats
Station Details ID: 023013 Name: PARAFIELD AIRPORT Lat: -34.80 Lon: 138.63 Height: 9.5 m
Data from the previous 72 hours. | See also: Recent months at Parafield
Date/Time
CST
Temp
°C
App
Temp
°C
Dew
Point
°C
Rel
Hum
%
Delta-T
°C
Wind Press
QNH
hPa
Press
MSL
hPa
Rain since
9am
mm
Dir  Spd
km/h
Gust
km/h
Spd
kts
Gust
kts
26/01:00am 10.4 7.2 5.2 70 2.4 NNE 11 15 6 8 1019.9 1020.0 0.0
26/12:30am 10.3 6.4 5.5 72 2.2 NE 15 20 8 11 1019.3 1019.4 0.0
26/12:00am 10.3 7.3 6.1 75 1.9 NE 11 13 6 7 1019.9 1020.0 0.0
 
Date/Time
CST
Temp
°C
App
Temp
°C
Dew
Point
°C
Rel
Hum
%
Delta-T
°C
Wind Press
QNH
hPa
Press
MSL
hPa
Rain since
9am
mm
Dir  Spd
km/h
Gust
km/h
Spd
kts
Gust
kts
25/11:30pm 10.1 7.3 6.8 80 1.5 NE 11 11 6 6 1020.2 1020.3 0.0
25/11:00pm 9.9 7.1 7.0 82 1.4 NE 11 15 6 8 1020.2 1020.3 0.0
25/10:30pm 10.3 7.5 6.8 79 1.6 NNE 11 13 6 7 1020.8 1020.9 0.0
25/10:00pm 10.4 7.5 6.7 78 1.7 NE 11 15 6 8 1021.0 1021.1 0.0
25/09:30pm 10.5 7.6 6.6 77 1.8 NE 11 15 6 8 1021.0 1021.1 0.0
25/09:00pm 10.2 7.1 7.1 81 1.5 ENE 13 15 7 8 1020.8 1020.9 0.0
25/08:30pm 9.9 7.6 7.5 85 1.1 NE 9 11 5 6 1021.2 1021.3 0.0
25/08:00pm 9.9 7.9 7.3 84 1.2 NE 7 9 4 5 1021.4 1021.5 0.0
25/07:30pm 10.1 8.1 7.3 83 1.3 NNE 7 9 4 5 1022.0 1022.0 0.0
25/07:00pm 10.7 8.7 7.2 79 1.7 NNW 7 9 4 5 1022.2 1022.2 0.0
25/06:30pm 10.5 8.6 7.4 81 1.5 N 7 9 4 5 1021.9 1021.9 0.0
25/06:00pm 10.3 8.0 7.4 82 1.4 NNE 9 9 5 5 1021.4 1021.5 0.0
25/05:30pm 11.0 9.0 7.1 77 1.9 NNE 7 9 4 5 1021.5 1021.6 0.0
25/05:00pm 11.5 9.4 6.6 72 2.3 N 7 9 4 5 1021.7 1021.7 0.0
25/04:30pm 11.9 9.5 7.0 72 2.3 NNE 9 11 5 6 1021.8 1021.8 0.0
25/04:00pm 12.0 9.5 6.5 69 2.6 N 9 13 5 7 1022.0 1022.0 0.0
25/03:30pm 12.3 9.8 6.6 68 2.7 NNE 9 11 5 6 1022.0 1022.0 0.0
25/03:00pm 12.5 9.6 6.5 67 2.8 NNE 11 15 6 8 1022.2 1022.2 0.0
25/02:30pm 12.5 9.1 5.9 64 3.1 N 13 15 7 8 1022.3 1022.3 0.0
25/02:00pm 12.3 8.9 5.9 65 3.0 N 13 19 7 10 1022.6 1022.6 0.0
25/01:30pm 12.3 9.5 7.0 70 2.5 NNE 11 15 6 8 1023.0 1023.0 0.0
25/01:00pm 12.1 8.5 6.8 70 2.5 N 15 20 8 11 1023.4 1023.4 0.0
25/12:30pm 12.7 8.9 7.4 70 2.6 N 17 22 9 12 1024.0 1024.0 0.0
25/12:00pm 12.1 8.1 6.8 70 2.5 NNE 17 22 9 12 1024.5 1024.5 0.0
25/11:30am 11.9 8.3 6.8 71 2.4 N 15 20 8 11 1025.0 1025.0 0.0
25/11:00am 11.7 8.6 7.2 74 2.2 N 13 17 7 9 1025.3 1025.3 0.0
25/10:30am 10.9 7.0 7.0 77 1.8 NNE 17 20 9 11 1025.6 1025.6 0.0
25/10:00am 10.2 6.6 6.9 80 1.6 NNE 15 19 8 10 1025.5 1025.5 0.0
25/09:30am 9.3 6.1 6.7 84 1.2 NNE 13 17 7 9 1025.4 1025.4 0.0
25/09:00am 9.0 6.8 7.8 92 0.6 NE 9 13 5 7 1025.3 1025.3 0.4
25/08:30am 7.8 5.9 7.4 97 0.2 NE 7 11 4 6 1025.2 1025.2 0.4
25/08:00am 5.1 2.2 4.5 96 0.3 NE 9 9 5 5 1025.0 1025.0 0.4
25/07:36am 4.4 1.3 3.8 96 0.2 NE 9 11 5 6 1024.9 1024.9 0.4
25/07:30am 4.0 0.9 3.4 96 0.2 NE 9 11 5 6 1024.9 1024.9 0.4
25/07:00am 4.5 2.0 3.9 96 0.3 N 6 7 3 4 1024.6 1024.6 0.4
25/06:34am 5.1 2.7 4.5 96 0.3 NE 6 7 3 4 1024.5 1024.5 0.4
25/06:30am 5.3 3.0 4.7 96 0.3 NE 6 7 3 4 1024.4 1024.4 0.4
25/06:29am 5.3 3.0 4.7 96 0.3 NE 6 7 3 4 1024.4 1024.4 0.4
25/06:00am 4.0 1.2 3.3 95 0.3 NE 7 7 4 4 1024.2 1024.2 0.2
25/05:54am 4.8 2.4 4.1 95 0.3 NE 6 7 3 4 1024.2 1024.2 0.2
25/05:30am 5.1 2.2 4.4 95 0.3 NE 9 9 5 5 1024.0 1024.0 0.2
25/05:00am 5.1 2.2 4.4 95 0.3 NE 9 9 5 5 1024.0 1024.0 0.2
25/04:30am 5.3 2.0 4.4 94 0.4 NE 11 11 6 6 1023.9 1023.9 0.2
25/04:00am 6.2 3.0 5.3 94 0.4 NE 11 13 6 7 1023.8 1023.8 0.2
25/03:30am 7.0 4.0 6.1 94 0.4 NE 11 11 6 6 1023.8 1023.8 0.2
25/03:00am 7.1 4.5 6.2 94 0.4 NE 9 11 5 6 1023.8 1023.8 0.2
25/02:30am 6.2 3.5 5.5 95 0.3 E 9 11 5 6 1023.8 1023.8 0.2
25/02:00am 5.8 3.4 5.1 95 0.3 NE 7 9 4 5 1023.7 1023.7 0.2
25/01:30am 3.9 0.7 3.0 94 0.4 NE 9 11 5 6 1023.5 1023.5 0.2
25/01:00am 3.3 0.4 2.4 94 0.4 NE 7 9 4 5 1023.3 1023.3 0.2
25/12:30am 4.1 2.3 3.2 94 0.4 NE 2 7 1 4 1023.4 1023.4 0.2
25/12:00am 4.7 2.0 3.8 94 0.4 NE 7 9 4 5 1023.1 1023.1 0.2
 
Date/Time
CST
Temp
°C
App
Temp
°C
Dew
Point
°C
Rel
Hum
%
Delta-T
°C
Wind Press
QNH
hPa
Press
MSL
hPa
Rain since
9am
mm
Dir  Spd
km/h
Gust
km/h
Spd
kts
Gust
kts
24/11:30pm 6.0 3.6 5.1 94 0.4 N 7 11 4 6 1023.0 1023.0 0.2
24/11:00pm 4.9 2.2 3.9 93 0.4 NE 7 9 4 5 1023.1 1023.1 0.2
24/10:30pm 5.7 2.8 4.7 93 0.4 NE 9 9 5 5 1023.1 1023.1 0.2
24/10:00pm 6.1 3.2 4.9 92 0.5 N 9 11 5 6 1023.1 1023.1 0.2
24/09:30pm 7.1 5.0 6.0 93 0.5 NNE 6 7 3 4 1023.1 1023.1 0.2
24/09:00pm 7.1 5.0 6.0 93 0.5 NNE 6 9 3 5 1023.0 1023.0 0.2
24/08:30pm 6.2 3.9 5.0 92 0.5 NNE 6 7 3 4 1022.7 1022.7 0.2
24/08:00pm 6.0 3.5 4.6 91 0.6 E 7 9 4 5 1022.4 1022.4 0.2
24/07:30pm 6.2 2.9 4.8 91 0.6 ESE 11 15 6 8 1022.0 1022.0 0.2
24/07:00pm 7.1 6.0 5.3 88 0.8 CALM 0 0 0 0 1021.5 1021.6 0.2
24/06:30pm 7.8 6.8 5.4 85 1.1 CALM 0 2 0 1 1020.9 1021.0 0.2
24/06:00pm 8.5 5.8 5.6 82 1.3 SW 9 11 5 6 1020.5 1020.6 0.2
24/05:30pm 8.5 5.5 5.8 83 1.2 WSW 11 15 6 8 1020.2 1020.3 0.2
24/05:00pm 9.7 5.3 6.6 81 1.4 SSW 19 32 10 17 1019.7 1019.8 0.2
24/04:30pm 12.0 6.4 5.4 64 3.0 SW 24 32 13 17 1019.1 1019.2 0.0
24/04:00pm 12.3 6.7 5.2 62 3.3 SW 24 33 13 18 1018.7 1018.8 0.0
24/03:30pm 11.4 5.0 5.3 66 2.8 SW 28 39 15 21 1018.3 1018.4 0.0
24/03:00pm 12.5 6.5 5.2 61 3.4 SW 26 37 14 20 1017.8 1017.9 0.0
24/02:30pm 11.9 6.2 5.1 63 3.1 SSW 24 30 13 16 1017.7 1017.8 0.0
24/02:00pm 12.6 5.7 4.6 58 3.7 SW 30 43 16 23 1017.3 1017.4 0.0
24/01:30pm 13.2 7.3 5.9 61 3.4 SW 26 32 14 17 1017.1 1017.2 0.0
24/01:00pm 12.2 5.7 4.9 61 3.3 SW 28 43 15 23 1017.2 1017.3 0.0
24/12:30pm 12.6 5.1 4.3 57 3.8 SW 33 46 18 25 1017.1 1017.2 0.0
24/12:00pm 12.6 5.4 4.8 59 3.6 SW 32 43 17 23 1017.1 1017.2 0.0
24/11:30am 11.8 4.4 4.1 59 3.4 SW 32 43 17 23 1017.1 1017.2 0.0
24/11:00am 12.4 4.4 3.6 55 3.9 SW 35 50 19 27 1016.9 1017.0 0.0
24/10:33am 11.9 3.6 2.1 51 4.2 SW 35 61 19 33 1016.5 1016.6 0.0
24/10:30am 11.9 3.9 3.7 57 3.6 SW 35 48 19 26 1016.5 1016.6 0.0
24/10:00am 11.4 2.8 2.7 55 3.8 SW 37 56 20 30 1015.9 1015.9 0.0
24/09:45am 11.3 2.6 2.1 53 3.9 SW 37 56 20 30 1015.6 1015.6 0.0
24/09:30am 10.9 2.0 3.2 59 3.4 SW 39 52 21 28 1015.4 1015.4 0.0
24/09:00am 10.3 3.4 4.7 68 2.5 SW 30 41 16 22 1014.7 1014.7 10.2
24/08:30am 9.3 3.6 4.7 73 2.0 WSW 24 35 13 19 1013.9 1013.9 10.2
24/08:00am 8.4 2.3 4.8 78 1.6 SW 26 37 14 20 1013.6 1013.6 10.2
24/07:46am 8.1 1.3 5.0 81 1.4 SW 30 48 16 26 1013.2 1013.2 10.2
24/07:30am 9.3 3.5 4.3 71 2.2 SW 24 37 13 20 1012.7 1012.7 10.0
24/07:00am 9.8 2.7 3.5 65 2.7 SW 30 39 16 21 1012.0 1012.0 10.0
24/06:33am 10.0 2.0 4.0 66 2.6 WSW 35 57 19 31 1011.4 1011.4 10.0
24/06:30am 9.8 1.8 4.0 67 2.6 WSW 35 46 19 25 1011.4 1011.4 10.0
24/06:00am 9.0 -0.2 3.6 69 2.3 WSW 41 59 22 32 1010.5 1010.5 10.0
24/05:41am 10.2 2.3 2.3 58 3.4 SW 33 56 18 30 1009.9 1009.9 9.8
24/05:30am 9.8 1.2 2.4 60 3.1 WSW 37 52 20 28 1009.8 1009.8 9.8
24/05:10am 9.7 1.6 3.4 65 2.7 WSW 35 54 19 29 1009.5 1009.5 9.8
24/05:00am 10.1 1.2 3.2 62 3.0 WSW 39 54 21 29 1009.3 1009.3 9.8
24/04:53am 10.2 2.5 2.3 58 3.4 SW 32 54 17 29 1009.0 1009.0 9.8
24/04:30am 9.3 3.3 3.5 67 2.5 WSW 24 33 13 18 1008.8 1008.8 9.8
24/04:00am 9.0 2.9 5.0 76 1.8 SW 26 35 14 19 1008.5 1008.5 9.8
24/03:30am 8.9 1.5 4.9 76 1.8 WSW 33 46 18 25 1008.1 1008.1 9.8
24/03:23am 9.0 2.2 5.2 77 1.7 WSW 30 48 16 26 1008.0 1008.0 9.6
24/03:00am 8.4 1.4 6.2 86 1.0 WSW 32 43 17 23 1007.9 1007.9 9.6
24/02:33am 8.3 0.2 5.4 82 1.3 WSW 37 63 20 34 1007.7 1007.7 8.8
24/02:30am 8.8 0.8 5.5 80 1.5 WSW 37 54 20 29 1007.3 1007.3 8.8
24/02:22am 9.0 0.6 5.4 78 1.6 WSW 39 54 21 29 1007.1 1007.1 8.8
24/02:08am 8.8 1.6 6.1 83 1.2 W 33 56 18 30 1006.9 1006.9 8.6
24/02:03am 9.6 3.4 6.0 78 1.7 W 28 46 15 25 1006.9 1006.9 8.2
24/02:00am 9.6 3.7 5.8 77 1.7 W 26 41 14 22 1006.9 1006.9 8.2
24/01:30am 9.3 2.7 5.9 79 1.6 W 30 43 16 23 1006.9 1006.9 8.2
24/01:06am 8.0 1.6 5.3 83 1.2 W 28 46 15 25 1006.9 1006.9 8.2
24/01:00am 7.9 -0.3 5.0 82 1.3 WSW 37 63 20 34 1006.8 1006.8 8.2
24/12:55am 8.0 -3.0 4.9 81 1.4 WSW 52 78 28 42 1006.8 1006.8 8.2
24/12:51am 8.4 -2.9 5.3 81 1.4 W 54 78 29 42 1006.7 1006.7 7.8
24/12:46am 9.3 0.8 5.3 76 1.8 W 39 78 21 42 1006.1 1006.1 7.6
24/12:44am 11.1 4.1 6.0 71 2.4 W 32 63 17 34 1006.5 1006.5 7.6
24/12:30am 11.3 4.5 5.2 66 2.8 W 30 41 16 22 1006.3 1006.3 7.6
24/12:00am 10.9 4.0 4.4 64 2.9 W 30 41 16 22 1006.3 1006.3 7.6
 
Date/Time
CST
Temp
°C
App
Temp
°C
Dew
Point
°C
Rel
Hum
%
Delta-T
°C
Wind Press
QNH
hPa
Press
MSL
hPa
Rain since
9am
mm
Dir  Spd
km/h
Gust
km/h
Spd
kts
Gust
kts
23/11:30pm 11.0 4.5 4.5 64 2.9 W 28 39 15 21 1006.0 1006.0 7.6
23/11:00pm 10.7 3.3 4.0 63 3.0 W 32 46 17 25 1006.0 1006.0 7.6
23/10:30pm 10.7 3.8 4.8 67 2.7 W 30 41 16 22 1006.0 1006.0 7.6
23/10:00pm 10.8 4.8 5.3 69 2.5 W 26 43 14 23 1005.8 1005.8 7.6
23/09:36pm 10.9 4.6 5.7 70 2.4 W 28 46 15 25 1005.9 1005.9 7.6
23/09:30pm 10.8 4.8 5.3 69 2.5 W 26 35 14 19 1005.9 1005.9 7.6
23/09:00pm 11.1 4.5 6.0 71 2.4 W 30 48 16 26 1005.6 1005.6 7.6
23/08:30pm 10.3 4.0 5.9 74 2.0 W 28 41 15 22 1005.5 1005.5 7.6
23/08:00pm 10.7 4.5 6.1 73 2.1 W 28 39 15 21 1005.2 1005.2 7.6
23/07:41pm 11.2 4.9 5.7 69 2.5 W 28 54 15 29 1004.7 1004.7 7.6
23/07:30pm 10.7 5.4 7.0 78 1.8 WNW 24 39 13 21 1004.5 1004.5 7.6
23/07:00pm 9.4 5.4 6.7 83 1.3 WNW 17 20 9 11 1004.2 1004.2 7.6
23/06:30pm 9.0 2.8 6.3 83 1.2 W 28 57 15 31 1004.0 1004.0 7.6
23/06:26pm 9.3 1.0 6.0 80 1.5 W 39 65 21 35 1004.1 1004.1 7.6
23/06:20pm 10.6 4.0 6.0 73 2.1 W 30 65 16 35 1004.2 1004.2 7.4
23/06:19pm 10.9 5.1 6.3 73 2.2 W 26 56 14 30 1004.2 1004.2 7.2
23/06:00pm 10.8 6.4 7.3 79 1.7 WNW 20 28 11 15 1003.5 1003.5 7.2
23/05:30pm 10.9 6.5 7.2 78 1.8 WNW 20 26 11 14 1003.1 1003.1 7.2
23/05:00pm 10.9 6.4 7.0 77 1.9 WNW 20 26 11 14 1002.8 1002.8 7.2
23/04:30pm 10.5 6.2 7.0 79 1.7 WNW 19 24 10 13 1002.8 1002.8 7.2
23/04:00pm 10.9 5.2 8.5 85 1.2 WSW 28 37 15 20 1003.0 1003.0 7.2
23/03:30pm 11.2 6.5 9.1 87 1.1 WNW 24 35 13 19 1002.5 1002.5 6.8
23/03:00pm 11.0 6.2 8.8 86 1.1 WNW 24 30 13 16 1002.4 1002.4 6.6
23/02:30pm 11.3 7.4 9.6 89 0.9 WNW 20 28 11 15 1001.9 1001.9 6.2
23/02:00pm 11.6 6.3 9.9 89 0.9 W 28 39 15 21 1002.4 1002.4 5.4
23/01:59pm 11.6 6.3 9.9 89 0.9 WNW 28 39 15 21 1002.3 1002.3 5.4
23/01:30pm 11.7 8.1 10.4 92 0.7 NW 20 32 11 17 1002.2 1002.2 4.4
23/01:03pm 10.0 5.4 8.1 88 0.9 WSW 22 33 12 18 1002.7 1002.7 3.4
23/01:00pm 10.1 4.7 8.2 88 0.9 W 26 37 14 20 1002.8 1002.8 3.2
23/12:32pm 11.7 5.8 10.3 91 0.7 NW 32 44 17 24 1002.8 1002.8 2.6
23/12:31pm 11.8 5.9 10.4 91 0.7 NW 32 44 17 24 1002.9 1002.9 2.6
23/12:30pm 11.8 6.3 10.4 91 0.7 NW 30 44 16 24 1002.9 1002.9 2.4
23/12:14pm 11.6 6.7 10.0 90 0.8 NW 26 41 14 22 1003.2 1003.2 2.2
23/12:07pm 11.7 6.0 9.8 88 1.0 NW 30 41 16 22 1003.2 1003.2 1.6
23/12:00pm 11.9 5.8 9.6 86 1.2 NW 32 43 17 23 1003.2 1003.2 1.4
23/11:47am 12.1 5.8 9.1 82 1.5 NW 32 54 17 29 1003.3 1003.3 1.0
23/11:30am 12.7 6.7 8.8 77 2.0 NW 30 41 16 22 1003.4 1003.4 0.6
23/11:01am 12.6 6.5 8.3 75 2.1 NNW 30 48 16 26 1003.8 1003.8 0.4
23/11:00am 12.6 6.6 8.5 76 2.0 NNW 30 43 16 23 1003.8 1003.8 0.4
23/10:30am 13.2 6.0 7.6 69 2.8 NNW 35 54 19 29 1004.5 1004.5 0.0
23/10:16am 13.1 7.3 7.8 70 2.6 NNW 28 46 15 25 1004.9 1004.9 0.0
23/10:00am 12.9 7.8 7.6 70 2.6 NNW 24 37 13 20 1004.9 1004.9 0.0
23/09:30am 12.2 6.7 7.7 74 2.2 NNW 26 35 14 19 1005.2 1005.2 0.0
23/09:00am 11.9 6.9 8.0 77 1.9 N 24 33 13 18 1004.9 1004.9 0.0
23/08:30am 11.6 7.1 8.5 81 1.5 N 22 32 12 17 1005.1 1005.1 0.0
23/08:00am 11.2 7.0 8.2 82 1.5 N 20 32 11 17 1004.9 1004.9 0.0
23/07:30am 11.4 6.5 8.3 81 1.5 N 24 33 13 18 1005.0 1005.0 0.0
23/07:00am 11.5 7.4 8.5 82 1.5 NNW 20 30 11 16 1005.2 1005.2 0.0
23/06:30am 11.7 7.9 9.1 84 1.3 N 19 26 10 14 1005.4 1005.4 0.0
23/06:00am 11.5 8.2 9.4 87 1.1 NNW 17 20 9 11 1005.7 1005.7 0.0
23/05:30am 11.3 7.5 9.7 90 0.8 NNW 20 30 11 16 1005.7 1005.7 0.0
23/05:00am 11.7 7.0 9.4 86 1.2 NNW 24 41 13 22 1005.9 1005.9 0.0
23/04:30am 11.9 7.9 9.1 83 1.4 NNW 20 32 11 17 1006.1 1006.1 0.0
23/04:00am 12.0 8.0 9.2 83 1.4 NNW 20 26 11 14 1006.3 1006.3 0.0
23/03:30am 12.0 8.1 9.4 84 1.3 NNW 20 30 11 16 1006.8 1006.8 0.0
23/03:00am 12.0 7.3 9.4 84 1.3 NNW 24 32 13 17 1007.0 1007.0 0.0
23/02:30am 11.8 7.9 9.5 86 1.2 NNW 20 32 11 17 1007.2 1007.2 0.0
23/02:00am 11.3 6.9 9.0 86 1.1 NNW 22 30 12 16 1007.4 1007.4 0.0
23/01:30am 11.5 7.2 9.2 86 1.2 NNW 22 32 12 17 1007.8 1007.8 0.0

Latest Capital City Observations: Canberra | Sydney | Melbourne | Brisbane | Adelaide | Perth | Hobart | Darwin

Other Formats:

Comma delimited format used in spreadsheet applications
http://www.bom.gov.au/fwo/IDS60901/IDS60901.95677.axf

JavaScript Object Notation format (JSON) in row-major order
http://www.bom.gov.au/fwo/IDS60901/IDS60901.95677.json